Nearby METAR Reports

 

KALB - Albany, New York, USA
Distance from station: E 47mi, 75km
Updated: Tue, 31-Jan-2023 3:51am EST
Overcast
Overcast
 Wind from calm
Wind: Calm
Temperature: 28°F , -2°C
Dew Point: 25°F , -4°C
Humidity: 86%
Barometer: 30.14 inHg , 1020.7 hPa
Clouds: Overcast
Visibility: 10 miles , 16 km
Cloud details: Mostly cloudy 7000 ft
Overcast 8500 ft
2023/01/31 08:51 KALB 310851Z 00000KT 10SM BKN070 OVC085 M02/M04 A3014 RMK AO2 SNE17 SLP211 P0000 60000 T10171044 50003 $
KSLK - Saranac Lake, New York, USA
Distance from station: N 110mi, 177km
Updated: Tue, 31-Jan-2023 4:11am EST
Light snow, Mist, Overcast
Light snow, Mist, Overcast
 Wind from NNW
Wind: NNW 9 mph , 15 km/h
Temperature: 16°F , -9°C
Wind Chill: 5°F , -15°C
Dew Point: 10°F , -12°C
Humidity: 79%
Barometer: 30.05 inHg , 1017.6 hPa
Summary: Light snow, Mist
Clouds: Overcast
Visibility: 3 miles , 5 km
Cloud details: Partly cloudy 2600 ft
Overcast 4000 ft
2023/01/31 09:11 KSLK 310911Z AUTO 34008KT 3SM -SN BR SCT026 OVC040 M09/M12 A3005 RMK AO2 P0000 T10941117
 
KSYR - Syracuse, New York, USA
Distance from station: W 73mi, 117km
Updated: Tue, 31-Jan-2023 3:54am EST
Light snow, Overcast
Light snow, Overcast
 Wind from W
Wind: W 10 mph , 17 km/h
Temperature: 27°F , -3°C
Wind Chill: 18°F , -8°C
Dew Point: 21°F , -6°C
Humidity: 80%
Barometer: 30.19 inHg , 1022.4 hPa
Summary: Light Snow
Clouds: Overcast
Visibility: 4 miles , 6 km
Cloud details: Partly cloudy 1900 ft
Overcast 3100 ft
2023/01/31 08:54 KSYR 310854Z 27009KT 4SM -SN SCT019 OVC031 M03/M06 A3019 RMK AO2 VIS 2 1/2 NW SLP225 P0000 60000 T10281056 53017
KBGM - Binghamton, New York, USA
Distance from station: SW 78mi, 126km
Updated: Tue, 31-Jan-2023 3:53am EST
Overcast
Overcast
 Wind from W
Wind: W 5 mph , 7 km/h
Temperature: 25°F , -4°C
Wind Chill: 19°F , -7°C
Dew Point: 21°F , -6°C
Humidity: 86%
Barometer: 30.09 inHg , 1019 hPa
Clouds: Overcast
Visibility: 10 miles , 16 km
Cloud details: Mostly cloudy 1300 ft
Overcast 2400 ft
2023/01/31 08:53 KBGM 310853Z AUTO 27004KT 10SM BKN013 OVC024 M04/M06 A3009 RMK AO2 SNE01 SLP209 P0000 60001 T10441056 51005
 
KRME - Rome, New York, USA
Distance from station: WNW 43mi, 69km
Updated: Tue, 31-Jan-2023 3:53am EST
Light snow, Mist, Overcast
Light snow, Mist, Overcast
 Wind from W
Wind: W 10 mph , 17 km/h
Temperature: 25°F , -4°C
Wind Chill: 15°F , -9°C
Dew Point: 21°F , -6°C
Humidity: 86%
Barometer: 30.18 inHg , 1022 hPa
Summary: Light snow, Mist
Clouds: Overcast
Visibility: 4 miles , 6 km
Cloud details: Few Clouds 3200 ft
Overcast 4200 ft
2023/01/31 08:53 KRME 310853Z AUTO 28009KT 4SM -SN BR FEW032 OVC042 M04/M06 A3018 RMK AO2 SLP224 P0000 60000 T10391056 53012
KJFK - New York, New York, USA
Distance from station: SSE 159mi, 256km
Updated: Tue, 31-Jan-2023 3:51am EST
Overcast
Overcast
 Wind from N
Wind: N 16 mph , 26 km/h
Temperature: 39°F , 4°C
Wind Chill: 30°F , -1°C
Dew Point: 36°F , 2°C
Humidity: 87%
Barometer: 30.09 inHg , 1019 hPa
Clouds: Overcast
Visibility: 10 miles , 16 km
Cloud details: Partly cloudy 1200 ft
Overcast 3800 ft
2023/01/31 08:51 KJFK 310851Z 01014KT 10SM SCT012 OVC038 04/02 A3009 RMK AO2 WSHFT 0811 SLP189 60000 T00390017 53007
 
KROC - Rochester, New York, USA
Distance from station: W 150mi, 242km
Updated: Tue, 31-Jan-2023 3:54am EST
Light snow, Mostly cloudy
Light snow, Mostly cloudy
 Wind from WNW
Wind: WNW 10 mph , 17 km/h
Temperature: 23°F , -5°C
Wind Chill: 13°F , -11°C
Dew Point: 12°F , -11°C
Humidity: 63%
Barometer: 30.23 inHg , 1023.7 hPa
Summary: Light Snow
Clouds: Mostly cloudy
Visibility: 9 miles , 14 km
Cloud details: Mostly cloudy 3800 ft
Mostly cloudy 6000 ft
2023/01/31 08:54 KROC 310854Z 30009KT 9SM -SN BKN038 BKN060 M05/M11 A3023 RMK AO2 SLP247 P0000 60000 T10501106 51017 $
KART - Watertown, New York, USA
Distance from station: NNW 103mi, 166km
Updated: Tue, 31-Jan-2023 3:56am EST
Overcast
Overcast
 Wind from NW
Wind: NW 8 mph , 13 km/h
Temperature: 21°F , -6°C
Wind Chill: 11°F , -12°C
Dew Point: 16°F , -9°C
Humidity: 80%
Barometer: 30.20 inHg , 1022.7 hPa
Clouds: Overcast
Visibility: 10 miles , 16 km
Cloud details: Overcast 5000 ft
2023/01/31 08:56 KART 310856Z AUTO 31007KT 10SM OVC050 M06/M09 A3020 RMK AO2 SLP234 60000 T10561089 53022
 
KELM - Elmira-Corning, New York, USA
Distance from station: SSW 121mi, 195km
Updated: Tue, 31-Jan-2023 3:53am EST
Overcast
Overcast
 Wind from calm
Wind: Calm
Temperature: 28°F , -2°C
Dew Point: 27°F , -3°C
Humidity: 93%
Barometer: 30.15 inHg , 1021 hPa
Clouds: Overcast
Visibility: 10 miles , 16 km
Cloud details: Overcast 2100 ft
2023/01/31 08:53 KELM 310853Z AUTO 00000KT 10SM OVC021 M02/M03 A3015 RMK AO2 SLP221 T10221028 53011
KJHW - Jamestown, New York, USA
Distance from station: SW 238mi, 383km
Updated: Tue, 31-Jan-2023 3:56am EST
Light snow, Mist, Overcast
Light snow, Mist, Overcast
 Wind from NW
Wind: NW 12 mph , 19 km/h
Temperature: 18°F , -8°C
Wind Chill: 5°F , -15°C
Dew Point: 14°F , -10°C
Humidity: 86%
Barometer: 30.18 inHg , 1022 hPa
Summary: Light snow, Mist
Clouds: Overcast
Visibility: 6 miles , 10 km
Cloud details: Partly cloudy 1100 ft
Overcast 1900 ft
2023/01/31 08:56 KJHW 310856Z AUTO 32010KT 6SM -SN BR SCT011 OVC019 M08/M10 A3018 RMK AO2 SLP251 P0000 60000 T10831100 51012 FZRANO
 
KMSS - Massena, New York, USA
Distance from station: N 141mi, 232km
Updated: Tue, 31-Jan-2023 4:12am EST
Overcast
Overcast
 Wind from NW
Wind: NW 7 mph , 11 km/h
Temperature: 18°F , -8°C
Wind Chill: 9°F , -13°C
Dew Point: 10°F , -12°C
Humidity: 73%
Barometer: 30.22 inHg , 1023.4 hPa
Clouds: Overcast
Visibility: 10 miles , 16 km
Cloud details: Mostly cloudy 2200 ft
Mostly cloudy 2800 ft
Overcast 6000 ft
2023/01/31 09:12 KMSS 310912Z AUTO 31006KT 10SM BKN022 BKN028 OVC060 M08/M12 A3022 RMK AO2 T10781122
KBUF - Buffalo, New York, USA
Distance from station: W 204mi, 328km
Updated: Tue, 31-Jan-2023 3:54am EST
Light snow, Clear
Light snow, Clear
 Wind from W
Wind: W 9 mph , 15 km/h
Temperature: 18°F , -8°C
Wind Chill: 7°F , -14°C
Dew Point: 9°F , -13°C
Humidity: 68%
Barometer: 30.24 inHg , 1024 hPa
Summary: Light Snow
Clouds: Clear
Visibility: 9 miles , 14 km
2023/01/31 08:54 KBUF 310854Z 27008KT 9SM -SN CLR M08/M13 A3024 RMK AO2 SLP253 P0000 60000 T10781133 51017